createdAt,value
2019-02-05T00:00:23.026Z,0.10
2019-02-05T00:01:22.986Z,0.10
2019-02-05T00:02:22.982Z,0.10
2019-02-05T00:03:22.972Z,0.10
2019-02-05T00:04:22.958Z,0.10
2019-02-05T00:05:22.956Z,0.20
2019-02-05T00:06:22.953Z,0.20
2019-02-05T00:07:22.924Z,0.10
2019-02-05T00:08:22.913Z,0.20
2019-02-05T00:09:22.900Z,0.10
2019-02-05T00:10:22.916Z,0.20
2019-02-05T00:11:22.889Z,0.10
2019-02-05T00:12:22.871Z,0.20
2019-02-05T00:13:22.859Z,0.20
2019-02-05T00:14:22.854Z,0.10
2019-02-05T00:15:22.862Z,0.20
2019-02-05T00:16:22.850Z,0.10
2019-02-05T00:17:22.826Z,0.20
2019-02-05T00:18:22.805Z,0.10
2019-02-05T00:19:22.804Z,0.90
2019-02-05T00:20:22.787Z,8.10
2019-02-05T00:21:22.790Z,7.30
2019-02-05T00:22:22.770Z,8.00
2019-02-05T00:23:22.757Z,9.20
2019-02-05T00:24:22.755Z,8.50
2019-02-05T00:25:22.789Z,1.20
2019-02-05T00:26:22.719Z,7.20
2019-02-05T00:27:22.711Z,0.10
2019-02-05T00:28:22.705Z,0.20
2019-02-05T00:29:22.701Z,0.10
2019-02-05T00:30:22.702Z,0.20
2019-02-05T00:31:22.669Z,0.10
2019-02-05T00:32:22.676Z,0.20
2019-02-05T00:33:22.646Z,1.40
2019-02-05T00:34:22.645Z,0.40
2019-02-05T00:35:22.638Z,0.20
2019-02-05T00:36:22.644Z,0.10
2019-02-05T00:37:22.610Z,0.20
2019-02-05T00:38:22.593Z,0.20
2019-02-05T00:39:22.585Z,0.10
2019-02-05T00:40:22.575Z,0.20
2019-02-05T00:41:22.674Z,0.10
2019-02-05T00:42:22.556Z,0.20
2019-02-05T00:43:22.544Z,0.20
2019-02-05T00:44:22.550Z,0.20
2019-02-05T00:45:22.520Z,0.10
2019-02-05T00:46:22.514Z,0.20
2019-02-05T00:47:22.507Z,0.10
2019-02-05T00:48:22.498Z,0.20
2019-02-05T00:49:22.499Z,0.10
2019-02-05T00:50:22.465Z,5.20
2019-02-05T00:51:22.477Z,12.00
2019-02-05T00:52:22.446Z,11.30
2019-02-05T00:53:22.436Z,12.50
2019-02-05T00:54:22.429Z,13.00
2019-02-05T00:55:22.417Z,10.50
2019-02-05T00:56:22.425Z,12.60
2019-02-05T00:57:22.399Z,10.60
2019-02-05T00:58:22.385Z,11.00
2019-02-05T00:59:22.371Z,10.10
2019-02-05T01:00:22.382Z,12.80
2019-02-05T01:01:22.372Z,0.10
2019-02-05T01:02:22.340Z,0.20
2019-02-05T01:03:22.331Z,0.20
2019-02-05T01:04:22.337Z,0.10
2019-02-05T01:05:22.306Z,0.10
2019-02-05T01:06:22.302Z,0.10
2019-02-05T01:07:22.307Z,0.10
2019-02-05T01:08:22.279Z,0.20
2019-02-05T01:09:22.295Z,0.20
2019-02-05T01:10:22.258Z,0.10
2019-02-05T01:11:22.243Z,0.20
2019-02-05T01:12:22.233Z,0.10
2019-02-05T01:13:22.222Z,0.20
2019-02-05T01:14:22.216Z,0.10
2019-02-05T01:15:22.229Z,0.20
2019-02-05T01:16:22.195Z,0.10
2019-02-05T01:17:22.179Z,0.10
2019-02-05T01:18:22.195Z,0.20
2019-02-05T01:19:22.163Z,0.20
2019-02-05T01:20:22.151Z,0.20
2019-02-05T01:21:22.159Z,0.10
2019-02-05T01:22:22.149Z,0.20
2019-02-05T01:23:22.116Z,0.20
2019-02-05T01:24:22.109Z,0.10
2019-02-05T01:25:22.095Z,0.20
2019-02-05T01:26:28.874Z,0.20
2019-02-05T01:27:23.101Z,0.20
2019-02-05T01:28:22.065Z,0.10
2019-02-05T01:29:22.056Z,0.20
2019-02-05T01:30:22.039Z,0.20
2019-02-05T01:31:22.032Z,0.40
2019-02-05T01:32:22.022Z,12.90
2019-02-05T01:33:22.033Z,13.90
2019-02-05T01:34:21.999Z,16.10
2019-02-05T01:35:22.088Z,16.70
2019-02-05T01:36:21.978Z,13.60
2019-02-05T01:37:21.966Z,16.90
2019-02-05T01:38:21.963Z,15.90
2019-02-05T01:39:21.966Z,17.30
2019-02-05T01:40:21.946Z,15.60
2019-02-05T01:41:21.927Z,14.60
2019-02-05T01:42:21.916Z,15.70
2019-02-05T01:43:21.901Z,15.70
2019-02-05T01:44:21.908Z,15.70
2019-02-05T01:45:21.885Z,16.00
2019-02-05T01:46:21.874Z,15.00
2019-02-05T01:47:21.882Z,14.90
2019-02-05T01:48:21.846Z,17.20
2019-02-05T01:49:21.847Z,15.10
2019-02-05T01:50:21.834Z,17.00
2019-02-05T01:51:21.821Z,15.60
2019-02-05T01:52:21.837Z,17.50
2019-02-05T01:53:21.797Z,17.10
2019-02-05T01:54:21.787Z,16.50
2019-02-05T01:55:21.771Z,17.50
2019-02-05T01:56:21.776Z,14.90
2019-02-05T01:57:21.753Z,16.70
2019-02-05T01:58:21.767Z,15.00
2019-02-05T01:59:21.736Z,0.10
2019-02-05T02:00:21.730Z,0.20
2019-02-05T02:01:21.719Z,0.10
2019-02-05T02:02:21.703Z,0.30
2019-02-05T02:03:21.705Z,0.20
2019-02-05T02:04:21.682Z,0.10
2019-02-05T02:05:21.694Z,0.20
2019-02-05T02:06:21.658Z,0.10
2019-02-05T02:07:21.647Z,0.10
2019-02-05T02:08:21.665Z,5.50
2019-02-05T02:09:21.624Z,0.10
2019-02-05T02:10:21.616Z,16.00
2019-02-05T02:11:21.611Z,2.20
2019-02-05T02:12:21.613Z,0.20
2019-02-05T02:13:21.634Z,0.20
2019-02-05T02:14:21.570Z,12.80
2019-02-05T02:15:21.557Z,0.10
2019-02-05T02:16:21.548Z,0.20
2019-02-05T02:17:21.539Z,0.20
2019-02-05T02:18:21.635Z,0.30
2019-02-05T02:19:21.524Z,0.10
2019-02-05T02:20:21.503Z,0.20
2019-02-05T02:21:21.532Z,0.20
2019-02-05T02:22:21.487Z,0.10
2019-02-05T02:23:21.498Z,0.20
2019-02-05T02:24:21.470Z,0.10
2019-02-05T02:25:21.477Z,0.20
2019-02-05T02:26:21.441Z,0.10
2019-02-05T02:27:21.434Z,0.20
2019-02-05T02:28:21.444Z,0.20
2019-02-05T02:29:21.412Z,0.20
2019-02-05T02:30:21.404Z,0.20
2019-02-05T02:31:21.394Z,0.10
2019-02-05T02:32:21.383Z,0.30
2019-02-05T02:33:21.399Z,0.20
2019-02-05T02:34:21.360Z,0.20
2019-02-05T02:35:21.343Z,0.10
2019-02-05T02:36:21.343Z,0.10
2019-02-05T02:37:21.327Z,0.20
2019-02-05T02:38:21.341Z,0.10
2019-02-05T02:39:21.299Z,0.10
2019-02-05T02:40:21.293Z,0.20
2019-02-05T02:41:21.282Z,0.10
2019-02-05T02:42:21.274Z,0.10
2019-02-05T02:43:21.265Z,0.10
2019-02-05T02:44:21.279Z,0.20
2019-02-05T02:45:21.240Z,0.20
2019-02-05T02:46:21.229Z,0.10
2019-02-05T02:47:21.214Z,0.30
2019-02-05T02:48:21.208Z,0.20
2019-02-05T02:49:21.196Z,0.20
2019-02-05T02:50:21.207Z,0.20
2019-02-05T02:51:21.183Z,0.20
2019-02-05T02:52:21.184Z,0.20
2019-02-05T02:53:21.158Z,0.20
2019-02-05T02:54:21.147Z,0.10
2019-02-05T02:55:21.138Z,0.30
2019-02-05T02:56:21.130Z,0.20
2019-02-05T02:57:21.134Z,0.10
2019-02-05T02:58:21.118Z,0.10
2019-02-05T02:59:21.089Z,0.10
2019-02-05T03:00:21.106Z,0.10
2019-02-05T03:01:21.069Z,0.20
2019-02-05T03:02:21.079Z,0.10
2019-02-05T03:03:21.053Z,0.20
2019-02-05T03:04:21.060Z,0.10
2019-02-05T03:05:21.031Z,0.20
2019-02-05T03:06:21.015Z,0.10
2019-02-05T03:07:21.004Z,0.20
2019-02-05T03:08:20.997Z,0.10
2019-02-05T03:09:21.006Z,0.20
2019-02-05T03:10:20.974Z,0.20
2019-02-05T03:11:20.959Z,0.20
2019-02-05T03:12:20.947Z,0.20
2019-02-05T03:13:20.947Z,4.50
2019-02-05T03:14:20.948Z,0.20
2019-02-05T03:15:20.937Z,0.20
2019-02-05T03:16:20.920Z,0.20
2019-02-05T03:17:20.915Z,0.20
2019-02-05T03:18:20.885Z,0.20
2019-02-05T03:19:20.890Z,0.20
2019-02-05T03:20:20.864Z,0.20
2019-02-05T03:21:20.934Z,0.20
2019-02-05T03:22:20.849Z,0.10
2019-02-05T03:23:20.836Z,0.20
2019-02-05T03:24:20.820Z,0.10
2019-02-05T03:25:20.828Z,0.20
2019-02-05T03:26:20.818Z,0.30
2019-02-05T03:27:20.795Z,0.20
2019-02-05T03:28:20.785Z,0.10
2019-02-05T03:29:20.769Z,0.20
2019-02-05T03:30:20.760Z,0.20
2019-02-05T03:31:20.767Z,0.20
2019-02-05T03:32:20.734Z,0.10
2019-02-05T03:33:20.731Z,0.20
2019-02-05T03:34:20.717Z,1.10
2019-02-05T03:35:20.835Z,11.40
2019-02-05T03:36:20.714Z,12.70
2019-02-05T03:37:20.686Z,12.20
2019-02-05T03:38:20.672Z,15.50
2019-02-05T03:39:20.659Z,12.60
2019-02-05T03:40:20.661Z,12.90
2019-02-05T03:41:20.663Z,11.40
2019-02-05T03:42:20.629Z,13.20
2019-02-05T03:43:20.616Z,12.60
2019-02-05T03:44:20.608Z,14.20
2019-02-05T03:45:20.617Z,12.80
2019-02-05T03:46:20.609Z,12.40
2019-02-05T03:47:20.583Z,14.50
2019-02-05T03:48:20.569Z,12.90
2019-02-05T03:49:20.560Z,0.50
2019-02-05T03:50:20.545Z,0.20
2019-02-05T03:51:20.549Z,0.30
2019-02-05T03:52:20.519Z,0.20
2019-02-05T03:53:20.510Z,0.10
2019-02-05T03:54:20.502Z,0.20
2019-02-05T03:55:20.512Z,0.10
2019-02-05T03:56:20.552Z,0.20
2019-02-05T03:57:30.582Z,0.20
2019-02-05T03:58:21.458Z,0.20
2019-02-05T03:59:20.453Z,0.10
2019-02-05T04:00:20.442Z,0.20
2019-02-05T04:01:20.454Z,0.20
2019-02-05T04:02:20.423Z,0.30
2019-02-05T04:03:20.410Z,0.20
2019-02-05T04:04:20.392Z,0.20
2019-02-05T04:05:20.383Z,0.20
2019-02-05T04:06:20.374Z,0.20
2019-02-05T04:07:20.394Z,0.20
2019-02-05T04:08:20.376Z,0.10
2019-02-05T04:09:20.347Z,0.30
2019-02-05T04:10:20.331Z,0.20
2019-02-05T04:11:20.338Z,0.20
2019-02-05T04:12:20.313Z,0.10
2019-02-05T04:13:20.301Z,0.20
2019-02-05T04:14:20.304Z,0.10
2019-02-05T04:15:20.276Z,0.20
2019-02-05T04:16:20.284Z,0.10
2019-02-05T04:17:20.257Z,0.30
2019-02-05T04:18:20.249Z,0.20
2019-02-05T04:19:20.243Z,0.20
2019-02-05T04:20:20.234Z,0.20
2019-02-05T04:21:20.242Z,0.30
2019-02-05T04:22:20.204Z,0.20
2019-02-05T04:23:20.192Z,0.10
2019-02-05T04:24:20.182Z,0.30
2019-02-05T04:25:20.195Z,0.20
2019-02-05T04:26:20.170Z,0.20
2019-02-05T04:27:20.174Z,0.20
2019-02-05T04:28:20.137Z,0.20
2019-02-05T04:29:20.154Z,1.70
2019-02-05T04:30:20.120Z,0.10
2019-02-05T04:31:20.113Z,0.20
2019-02-05T04:32:20.110Z,0.20
2019-02-05T04:33:20.095Z,0.10
2019-02-05T04:34:20.076Z,0.20
2019-02-05T04:35:20.086Z,0.10
2019-02-05T04:36:20.052Z,0.20
2019-02-05T04:37:20.051Z,0.20
2019-02-05T04:38:20.040Z,0.20
2019-02-05T04:39:20.028Z,0.20
2019-02-05T04:40:20.036Z,0.20
2019-02-05T04:41:20.033Z,0.20
2019-02-05T04:42:20.025Z,0.20
2019-02-05T04:43:20.002Z,0.20
2019-02-05T04:44:19.981Z,0.20
2019-02-05T04:45:19.991Z,0.10
2019-02-05T04:46:19.953Z,0.20
2019-02-05T04:47:19.937Z,0.10
2019-02-05T04:48:19.926Z,0.20
2019-02-05T04:49:19.920Z,0.20
2019-02-05T04:50:19.944Z,0.20
2019-02-05T04:51:19.899Z,0.20
2019-02-05T04:52:19.896Z,0.10
2019-02-05T04:53:19.880Z,0.90
2019-02-05T04:54:19.863Z,0.20
2019-02-05T04:55:19.877Z,0.10
2019-02-05T04:56:19.841Z,0.20
2019-02-05T04:57:19.833Z,0.20
2019-02-05T04:58:19.843Z,0.20
2019-02-05T04:59:19.823Z,0.10
2019-02-05T05:00:19.799Z,0.20
2019-02-05T05:01:19.809Z,0.10
2019-02-05T05:02:19.784Z,0.20
2019-02-05T05:03:19.788Z,0.10
2019-02-05T05:04:19.763Z,0.20
2019-02-05T05:05:19.756Z,0.10
2019-02-05T05:06:19.757Z,0.10
2019-02-05T05:07:19.726Z,0.10
2019-02-05T05:08:19.713Z,0.20
2019-02-05T05:09:19.709Z,0.20
2019-02-05T05:10:19.717Z,0.20
2019-02-05T05:11:19.693Z,0.20
2019-02-05T05:12:19.682Z,0.20
2019-02-05T05:13:19.671Z,0.10
2019-02-05T05:14:19.671Z,0.20
2019-02-05T05:15:19.638Z,0.20
2019-02-05T05:16:19.650Z,0.20
2019-02-05T05:17:19.624Z,0.20
2019-02-05T05:18:19.626Z,0.30
2019-02-05T05:19:19.614Z,0.20
2019-02-05T05:20:19.608Z,0.20
2019-02-05T05:21:19.586Z,0.10
2019-02-05T05:22:19.571Z,0.20
2019-02-05T05:23:19.565Z,0.10
2019-02-05T05:24:19.552Z,0.20
2019-02-05T05:25:19.557Z,1.20
2019-02-05T05:26:19.524Z,0.10
2019-02-05T05:27:19.521Z,0.30
2019-02-05T05:28:19.510Z,0.20
2019-02-05T05:29:19.517Z,0.20
2019-02-05T05:30:19.484Z,0.20
2019-02-05T05:31:19.476Z,0.20
2019-02-05T05:32:19.461Z,0.20
2019-02-05T05:33:19.451Z,0.10
2019-02-05T05:34:19.443Z,0.20
2019-02-05T05:35:19.471Z,0.10
2019-02-05T05:36:19.424Z,0.20
2019-02-05T05:37:19.410Z,0.10
2019-02-05T05:38:19.397Z,0.20
2019-02-05T05:39:19.423Z,0.10
2019-02-05T05:40:19.374Z,0.20
2019-02-05T05:41:19.366Z,0.20
2019-02-05T05:42:19.358Z,0.10
2019-02-05T05:43:19.370Z,0.20
2019-02-05T05:44:19.341Z,0.20
2019-02-05T05:45:19.329Z,0.10
2019-02-05T05:46:19.313Z,0.20
2019-02-05T05:47:19.303Z,0.10
2019-02-05T05:48:19.315Z,0.30
2019-02-05T05:49:19.283Z,0.20
2019-02-05T05:50:21.278Z,0.10
2019-02-05T05:51:19.260Z,0.20
2019-02-05T05:52:19.248Z,0.20
2019-02-05T05:53:19.256Z,0.20
2019-02-05T05:54:19.230Z,0.30
2019-02-05T05:55:19.223Z,0.20
2019-02-05T05:56:19.236Z,0.10
2019-02-05T05:57:19.196Z,0.30
2019-02-05T05:58:23.100Z,0.30
2019-02-05T05:59:19.180Z,0.20
2019-02-05T06:00:19.166Z,0.10
2019-02-05T06:01:19.168Z,0.20
2019-02-05T06:02:19.151Z,0.20
2019-02-05T06:03:19.131Z,0.10
2019-02-05T06:04:19.143Z,0.20
2019-02-05T06:05:19.119Z,0.30
2019-02-05T06:06:19.099Z,0.20
2019-02-05T06:07:19.107Z,0.10
2019-02-05T06:08:19.099Z,0.20
2019-02-05T06:09:19.197Z,0.20
2019-02-05T06:10:19.070Z,0.20
2019-02-05T06:11:19.052Z,0.10
2019-02-05T06:12:19.039Z,0.20
2019-02-05T06:13:19.065Z,0.10
2019-02-05T06:14:19.018Z,0.20
2019-02-05T06:15:19.005Z,0.10
2019-02-05T06:16:19.014Z,0.10
2019-02-05T06:17:18.982Z,0.10
2019-02-05T06:18:18.978Z,0.10
2019-02-05T06:19:18.966Z,0.10
2019-02-05T06:20:18.952Z,0.10
2019-02-05T06:21:18.958Z,0.20
2019-02-05T06:22:18.939Z,0.10
2019-02-05T06:23:18.948Z,0.10
2019-02-05T06:24:18.913Z,0.10
2019-02-05T06:25:18.914Z,0.20
2019-02-05T06:26:20.289Z,0.10
2019-02-05T06:27:18.879Z,0.20
2019-02-05T06:28:18.886Z,0.20
2019-02-05T06:29:18.857Z,0.10
2019-02-05T06:30:18.888Z,0.10
2019-02-05T06:31:18.838Z,0.30
2019-02-05T06:32:18.826Z,0.20
2019-02-05T06:33:18.835Z,0.20
2019-02-05T06:34:18.800Z,0.10
2019-02-05T06:35:18.794Z,0.20
2019-02-05T06:36:18.787Z,0.10
2019-02-05T06:37:18.775Z,0.20
2019-02-05T06:38:18.781Z,0.10
2019-02-05T06:39:18.752Z,0.20
2019-02-05T06:40:18.752Z,0.10
2019-02-05T06:41:18.727Z,0.20
2019-02-05T06:42:18.742Z,0.10
2019-02-05T06:43:18.724Z,0.30
2019-02-05T06:44:18.724Z,0.20
2019-02-05T06:45:18.691Z,0.10
2019-02-05T06:46:18.682Z,0.20
2019-02-05T06:47:18.687Z,0.20
2019-02-05T06:48:18.674Z,0.20
2019-02-05T06:49:18.642Z,0.10
2019-02-05T06:50:18.666Z,0.20
2019-02-05T06:51:18.627Z,0.20
2019-02-05T06:52:18.615Z,0.20
2019-02-05T06:53:18.625Z,0.20
2019-02-05T06:54:18.602Z,0.20
2019-02-05T06:55:18.611Z,0.20
2019-02-05T06:56:18.579Z,0.10
2019-02-05T06:57:18.565Z,0.30
2019-02-05T06:58:18.570Z,0.20
2019-02-05T06:59:18.538Z,0.10
2019-02-05T07:00:18.529Z,0.30
2019-02-05T07:01:18.539Z,0.20
2019-02-05T07:02:18.557Z,0.10
2019-02-05T07:03:18.501Z,0.10
2019-02-05T07:04:18.493Z,0.10
2019-02-05T07:05:18.495Z,0.20
2019-02-05T07:06:18.482Z,0.10
2019-02-05T07:07:18.485Z,0.20
2019-02-05T07:08:18.460Z,0.20
2019-02-05T07:09:18.452Z,0.20
2019-02-05T07:10:18.439Z,0.20
2019-02-05T07:11:18.438Z,0.10
2019-02-05T07:12:18.438Z,0.20
2019-02-05T07:13:18.408Z,0.10
2019-02-05T07:14:18.400Z,0.20
2019-02-05T07:15:18.390Z,0.20
2019-02-05T07:16:18.376Z,0.30
2019-02-05T07:17:18.391Z,0.20
2019-02-05T07:18:18.350Z,0.20
2019-02-05T07:19:18.342Z,0.20
2019-02-05T07:20:18.344Z,0.20
2019-02-05T07:21:18.318Z,0.20
2019-02-05T07:22:18.334Z,0.10
2019-02-05T07:23:18.302Z,0.20
2019-02-05T07:24:18.288Z,0.10
2019-02-05T07:25:18.277Z,0.20
2019-02-05T07:26:18.280Z,0.20
2019-02-05T07:27:18.286Z,0.20
2019-02-05T07:28:18.278Z,0.10
2019-02-05T07:29:18.241Z,0.20
2019-02-05T07:30:18.238Z,0.10
2019-02-05T07:31:18.213Z,0.20
2019-02-05T07:32:18.222Z,0.10
2019-02-05T07:33:18.193Z,0.20
2019-02-05T07:34:21.130Z,0.10
2019-02-05T07:35:18.175Z,0.20
2019-02-05T07:36:18.174Z,0.10
2019-02-05T07:37:18.176Z,0.20
2019-02-05T07:38:18.138Z,0.20
2019-02-05T07:39:18.133Z,0.10
2019-02-05T07:40:18.120Z,0.20
2019-02-05T07:41:18.115Z,0.10
2019-02-05T07:42:18.123Z,0.20
2019-02-05T07:43:18.087Z,0.10
2019-02-05T07:44:18.098Z,0.20
2019-02-05T07:45:18.119Z,0.10
2019-02-05T07:46:18.065Z,13.80
2019-02-05T07:47:18.096Z,0.20
2019-02-05T07:48:18.060Z,0.20
2019-02-05T07:49:18.084Z,0.10
2019-02-05T07:50:18.173Z,0.20
2019-02-05T07:51:18.015Z,0.20
2019-02-05T07:52:17.993Z,0.30
2019-02-05T07:53:17.998Z,0.20
2019-02-05T07:54:17.974Z,0.10
2019-02-05T07:55:17.973Z,0.20
2019-02-05T07:56:17.955Z,0.10
2019-02-05T07:57:17.957Z,0.20
2019-02-05T07:58:17.932Z,0.10
2019-02-05T07:59:17.920Z,0.30
2019-02-05T08:00:17.915Z,0.20
2019-02-05T08:01:17.902Z,0.20
2019-02-05T08:02:17.909Z,0.10
2019-02-05T08:03:17.895Z,0.20
2019-02-05T08:04:17.874Z,0.10
2019-02-05T08:05:17.855Z,0.20
2019-02-05T08:06:17.902Z,0.10
2019-02-05T08:07:17.840Z,0.20
2019-02-05T08:08:17.867Z,0.10
2019-02-05T08:09:17.817Z,0.30
2019-02-05T08:10:17.798Z,0.20
2019-02-05T08:11:17.815Z,0.10
2019-02-05T08:12:17.788Z,0.30
2019-02-05T08:13:17.774Z,0.20
2019-02-05T08:14:17.774Z,0.20
2019-02-05T08:15:17.748Z,0.20
2019-02-05T08:16:17.761Z,0.10
2019-02-05T08:17:17.724Z,0.20
2019-02-05T08:18:17.720Z,0.20
2019-02-05T08:19:17.706Z,0.10
2019-02-05T08:20:17.700Z,0.20
2019-02-05T08:21:17.689Z,0.10
2019-02-05T08:22:17.690Z,0.20
2019-02-05T08:23:17.665Z,0.20
2019-02-05T08:24:17.681Z,0.20
2019-02-05T08:25:17.639Z,0.20
2019-02-05T08:26:17.653Z,0.10
2019-02-05T08:27:17.636Z,0.10
2019-02-05T08:28:17.609Z,0.20
2019-02-05T08:29:21.756Z,0.20
2019-02-05T08:30:17.611Z,0.20
2019-02-05T08:31:17.594Z,0.20
2019-02-05T08:32:17.610Z,0.20
2019-02-05T08:33:17.559Z,0.10
2019-02-05T08:34:17.570Z,0.10
2019-02-05T08:35:17.562Z,0.20
2019-02-05T08:36:17.522Z,0.20
2019-02-05T08:37:17.508Z,0.20
2019-02-05T08:38:17.505Z,0.10
2019-02-05T08:39:18.025Z,0.20
2019-02-05T08:40:17.482Z,0.10
2019-02-05T08:41:17.472Z,0.20
2019-02-05T08:42:17.455Z,0.20
2019-02-05T08:43:17.462Z,0.20
2019-02-05T08:44:17.492Z,0.20
2019-02-05T08:45:17.431Z,0.20
2019-02-05T08:46:17.421Z,0.20
2019-02-05T08:47:17.405Z,0.20
2019-02-05T08:48:17.396Z,0.10
2019-02-05T08:49:17.379Z,0.30
2019-02-05T08:50:17.395Z,0.20
2019-02-05T08:51:17.360Z,0.10
2019-02-05T08:52:17.349Z,0.20
2019-02-05T08:53:17.368Z,0.20
2019-02-05T08:54:17.335Z,0.20
2019-02-05T08:55:17.331Z,0.10
2019-02-05T08:56:17.303Z,0.20
2019-02-05T08:57:17.289Z,0.20
2019-02-05T08:58:17.285Z,0.30
2019-02-05T08:59:17.302Z,0.20
2019-02-05T09:00:17.265Z,0.20
2019-02-05T09:01:17.247Z,0.10
2019-02-05T09:02:17.245Z,0.20
2019-02-05T09:03:17.229Z,0.20
2019-02-05T09:04:17.233Z,0.30
2019-02-05T09:05:17.241Z,0.20
2019-02-05T09:06:17.194Z,0.10
2019-02-05T09:07:17.189Z,0.20
2019-02-05T09:08:17.182Z,0.10
2019-02-05T09:09:17.163Z,0.30
2019-02-05T09:10:17.174Z,0.20
2019-02-05T09:11:17.143Z,0.10
2019-02-05T09:12:18.064Z,0.30
2019-02-05T09:13:17.122Z,0.20
2019-02-05T09:14:17.105Z,0.20
2019-02-05T09:15:28.869Z,0.20
2019-02-05T09:16:18.089Z,0.20
2019-02-05T09:17:17.129Z,0.20
2019-02-05T09:18:17.096Z,0.20
2019-02-05T09:19:17.069Z,0.10
2019-02-05T09:20:17.071Z,0.10
2019-02-05T09:21:17.034Z,0.20
2019-02-05T09:22:17.061Z,0.20
2019-02-05T09:23:17.042Z,0.20
2019-02-05T09:24:17.003Z,0.10
2019-02-05T09:25:17.012Z,0.20
2019-02-05T09:26:16.977Z,0.20
2019-02-05T09:27:16.978Z,0.10
2019-02-05T09:28:17.011Z,0.10
2019-02-05T09:29:16.961Z,0.10
2019-02-05T09:30:16.939Z,0.20
2019-02-05T09:31:16.927Z,0.10
2019-02-05T09:32:16.915Z,0.20
2019-02-05T09:33:16.902Z,0.20
2019-02-05T09:34:16.936Z,0.20
2019-02-05T09:35:16.933Z,0.10
2019-02-05T09:36:16.872Z,0.20
2019-02-05T09:37:16.863Z,0.10
2019-02-05T09:38:16.846Z,0.20
2019-02-05T09:39:16.837Z,0.10
2019-02-05T09:40:16.846Z,0.20
2019-02-05T09:41:16.816Z,0.20
2019-02-05T09:42:16.818Z,0.10
2019-02-05T09:43:16.797Z,0.20
2019-02-05T09:44:16.788Z,0.20
2019-02-05T09:45:16.795Z,0.30
2019-02-05T09:46:16.762Z,0.20
2019-02-05T09:47:16.752Z,0.10
2019-02-05T09:48:16.742Z,0.20
2019-02-05T09:49:16.736Z,0.10
2019-02-05T09:50:16.734Z,0.20
2019-02-05T09:51:16.710Z,0.10
2019-02-05T09:52:16.699Z,0.20
2019-02-05T09:53:16.686Z,0.20
2019-02-05T09:54:16.686Z,0.10
2019-02-05T09:55:16.699Z,0.20
2019-02-05T09:56:16.683Z,0.10
2019-02-05T09:57:16.648Z,0.30
2019-02-05T09:58:16.630Z,0.20
2019-02-05T09:59:16.638Z,0.10
2019-02-05T10:00:16.621Z,0.20
2019-02-05T10:01:16.634Z,0.20
2019-02-05T10:02:16.605Z,0.20
2019-02-05T10:03:16.588Z,0.30
2019-02-05T10:04:16.587Z,0.20
2019-02-05T10:05:16.556Z,0.10
2019-02-05T10:06:16.597Z,0.20
2019-02-05T10:07:16.537Z,0.10
2019-02-05T10:08:16.542Z,0.30
2019-02-05T10:09:16.559Z,0.20
2019-02-05T10:10:16.502Z,0.10
2019-02-05T10:11:16.500Z,0.30
2019-02-05T10:12:16.479Z,0.20
2019-02-05T10:13:16.472Z,0.10
2019-02-05T10:14:16.478Z,0.20
2019-02-05T10:15:16.454Z,0.10
2019-02-05T10:16:16.442Z,0.20
2019-02-05T10:17:16.430Z,0.10
2019-02-05T10:18:16.417Z,0.20
2019-02-05T10:19:16.422Z,14.10
2019-02-05T10:20:16.397Z,10.30
2019-02-05T10:21:16.385Z,0.20
2019-02-05T10:22:16.389Z,2.90
2019-02-05T10:23:16.370Z,0.10
2019-02-05T10:24:16.379Z,0.20
2019-02-05T10:25:16.339Z,0.10
2019-02-05T10:26:16.352Z,0.20
2019-02-05T10:27:16.331Z,5.60
2019-02-05T10:28:16.313Z,0.50
2019-02-05T10:29:16.319Z,4.00
2019-02-05T10:30:16.284Z,0.10
2019-02-05T10:31:16.275Z,0.20
2019-02-05T10:32:16.279Z,0.30
2019-02-05T10:33:16.256Z,0.20
2019-02-05T10:34:16.262Z,0.10
2019-02-05T10:35:16.235Z,8.00
2019-02-05T10:36:16.217Z,0.60
2019-02-05T10:37:16.214Z,0.10
2019-02-05T10:38:16.202Z,0.20
2019-02-05T10:39:16.210Z,0.20
2019-02-05T10:40:16.188Z,0.20
2019-02-05T10:41:16.170Z,0.10
2019-02-05T10:42:16.165Z,0.20
2019-02-05T10:43:16.161Z,0.10
2019-02-05T10:44:16.134Z,0.10
2019-02-05T10:45:16.125Z,0.10
2019-02-05T10:46:16.113Z,0.10
2019-02-05T10:47:16.125Z,0.20
2019-02-05T10:48:16.096Z,0.10
2019-02-05T10:49:16.109Z,0.20
2019-02-05T10:50:16.067Z,0.20
2019-02-05T10:51:16.056Z,0.20
2019-02-05T10:52:16.056Z,0.10
2019-02-05T10:53:16.039Z,0.20
2019-02-05T10:54:16.047Z,0.20
2019-02-05T10:55:16.022Z,0.20
2019-02-05T10:56:16.034Z,0.10
2019-02-05T10:57:15.992Z,0.10
2019-02-05T10:58:15.983Z,0.10
2019-02-05T10:59:16.009Z,0.10
2019-02-05T11:00:15.970Z,0.20
2019-02-05T11:01:15.953Z,0.20
2019-02-05T11:02:15.937Z,0.20
2019-02-05T11:03:15.929Z,0.20
2019-02-05T11:04:15.932Z,0.20
2019-02-05T11:05:15.931Z,0.20
2019-02-05T11:06:15.899Z,0.10
2019-02-05T11:07:15.888Z,0.20
2019-02-05T11:08:15.878Z,0.10
2019-02-05T11:09:15.885Z,0.20
2019-02-05T11:10:15.856Z,0.10
2019-02-05T11:11:15.846Z,0.20
2019-02-05T11:12:15.835Z,0.10
2019-02-05T11:13:18.754Z,0.20
2019-02-05T11:14:15.975Z,0.10
2019-02-05T11:15:15.796Z,0.10
2019-02-05T11:16:15.786Z,0.20
2019-02-05T11:17:15.774Z,0.20
2019-02-05T11:18:15.788Z,0.20
2019-02-05T11:19:15.765Z,0.10
2019-02-05T11:20:15.797Z,0.20
2019-02-05T11:21:15.733Z,0.20
2019-02-05T11:22:15.720Z,0.20
2019-02-05T11:23:15.726Z,0.20
2019-02-05T11:24:15.705Z,0.10
2019-02-05T11:25:15.690Z,0.20
2019-02-05T11:26:15.697Z,0.20
2019-02-05T11:27:15.674Z,0.10
2019-02-05T11:28:15.654Z,0.30
2019-02-05T11:29:15.646Z,0.20
2019-02-05T11:30:20.345Z,0.10
2019-02-05T11:31:16.648Z,0.20
2019-02-05T11:32:15.616Z,0.10
2019-02-05T11:33:15.605Z,0.20
2019-02-05T11:34:15.591Z,0.10
2019-02-05T11:35:15.576Z,0.20
2019-02-05T11:36:15.644Z,0.10
2019-02-05T11:37:15.574Z,0.20
2019-02-05T11:38:15.580Z,0.20
2019-02-05T11:39:15.582Z,0.20
2019-02-05T11:40:15.606Z,0.20
2019-02-05T11:41:15.529Z,0.20
2019-02-05T11:42:15.524Z,0.10
2019-02-05T11:43:15.530Z,0.20
2019-02-05T11:44:15.485Z,0.20
2019-02-05T11:45:15.476Z,0.20
2019-02-05T11:46:15.491Z,0.20
2019-02-05T11:47:15.447Z,0.20
2019-02-05T11:48:15.436Z,0.20
2019-02-05T11:49:15.445Z,0.20
2019-02-05T11:50:15.420Z,0.20
2019-02-05T11:51:15.414Z,0.20
2019-02-05T11:52:15.409Z,0.20
2019-02-05T11:53:15.387Z,0.10
2019-02-05T11:54:15.392Z,0.20
2019-02-05T11:55:15.361Z,0.20
2019-02-05T11:56:15.364Z,0.10
2019-02-05T11:57:15.344Z,0.20
2019-02-05T11:58:15.332Z,0.10
2019-02-05T11:59:15.344Z,0.30
2019-02-05T12:00:15.309Z,0.20
2019-02-05T12:01:15.304Z,0.20
2019-02-05T12:02:15.289Z,0.20
2019-02-05T12:03:15.280Z,0.20
2019-02-05T12:04:15.273Z,0.20
2019-02-05T12:05:15.277Z,0.10
2019-02-05T12:06:15.245Z,0.20
2019-02-05T12:07:15.230Z,0.20
2019-02-05T12:08:18.380Z,0.30
2019-02-05T12:09:15.245Z,0.20
2019-02-05T12:10:15.213Z,0.10
2019-02-05T12:11:15.206Z,0.20
2019-02-05T12:12:15.184Z,0.10
2019-02-05T12:13:15.185Z,0.20
2019-02-05T12:14:15.161Z,0.20
2019-02-05T12:15:15.159Z,0.10
2019-02-05T12:16:15.139Z,0.20
2019-02-05T12:17:15.144Z,0.10
2019-02-05T12:18:15.172Z,0.20
2019-02-05T12:19:15.102Z,0.20
2019-02-05T12:20:15.090Z,0.20
2019-02-05T12:21:15.079Z,0.30
2019-02-05T12:22:15.076Z,0.20
2019-02-05T12:23:15.106Z,0.10
2019-02-05T12:24:15.052Z,0.20
2019-02-05T12:25:15.039Z,0.20
2019-02-05T12:26:15.033Z,0.20
2019-02-05T12:27:15.015Z,0.20
2019-02-05T12:28:15.029Z,0.10
2019-02-05T12:29:15.013Z,0.10
2019-02-05T12:30:14.982Z,0.20
2019-02-05T12:31:14.973Z,0.10
2019-02-05T12:32:14.961Z,0.20
2019-02-05T12:33:14.970Z,0.20
2019-02-05T12:34:14.942Z,0.10
2019-02-05T12:35:14.937Z,0.30
2019-02-05T12:36:14.921Z,0.20
2019-02-05T12:37:14.913Z,0.10
2019-02-05T12:38:14.913Z,0.20
2019-02-05T12:39:14.882Z,0.20
2019-02-05T12:40:14.873Z,0.20
2019-02-05T12:41:14.880Z,0.20
2019-02-05T12:42:14.892Z,0.20
2019-02-05T12:43:14.855Z,0.20
2019-02-05T12:44:14.829Z,0.20
2019-02-05T12:45:14.819Z,0.20
2019-02-05T12:46:14.834Z,0.10
2019-02-05T12:47:14.801Z,0.20
2019-02-05T12:48:14.800Z,0.10
2019-02-05T12:49:15.011Z,0.10
2019-02-05T12:50:14.765Z,0.20
2019-02-05T12:51:14.752Z,0.10
2019-02-05T12:52:14.764Z,0.20
2019-02-05T12:53:14.754Z,0.20
2019-02-05T12:54:14.723Z,0.20
2019-02-05T12:55:15.779Z,0.30
2019-02-05T12:56:14.722Z,0.20
2019-02-05T12:57:14.689Z,0.10
2019-02-05T12:58:14.702Z,0.20
2019-02-05T12:59:14.664Z,0.20
2019-02-05T13:00:14.665Z,0.20
2019-02-05T13:01:14.647Z,0.20
2019-02-05T13:02:14.654Z,0.20
2019-02-05T13:03:14.622Z,0.20
2019-02-05T13:04:14.622Z,0.20
2019-02-05T13:05:14.601Z,0.20
2019-02-05T13:06:14.594Z,0.10
2019-02-05T13:07:14.605Z,0.20
2019-02-05T13:08:14.572Z,0.10
2019-02-05T13:09:14.561Z,0.20
2019-02-05T13:10:14.546Z,0.10
2019-02-05T13:11:14.536Z,0.10
2019-02-05T13:12:14.546Z,0.20
2019-02-05T13:13:14.516Z,0.20
2019-02-05T13:14:14.517Z,0.20
2019-02-05T13:15:14.532Z,0.20
2019-02-05T13:16:14.484Z,0.10